Ferdinand, Idaho
Current Conditions -  °F | °C
As of 3:35 PM on Monday 20 Oct 2014 (Local Time) from KGIC Reporting Station
Clear Clear  
Wind Chill: 74°   Ceiling: Unl
Heat Index: 74°   Visibility: 10mi
Dew Point: 28°   Wind: 0mph
Humidity: 18%   Direction: NA
Pressure: 29.77"   Gusts: NA
Location:  46.15°N, 116.39°W
Report Text: KGIC 202235Z AUTO 00000KT 10SM CLR 24/M02 A2977 RMK AO1 T02351021
Loading
Personal Weather Stations






























Interactive Weather Map
Tropical Storm Tracking
New forecast layout! Learn more

10-Day Weather Forecast

Advertisements
Track Severe Weather on mobile